createdAt,value
2022-11-17T00:01:26.564Z,14.87
2022-11-17T00:03:53.635Z,41.50
2022-11-17T00:06:21.180Z,24.13
2022-11-17T00:08:49.133Z,64.67
2022-11-17T00:11:16.461Z,153.37
2022-11-17T00:14:02.185Z,61.20
2022-11-17T00:16:29.335Z,15.93
2022-11-17T00:19:15.379Z,46.37
2022-11-17T00:21:42.816Z,65.23
2022-11-17T00:24:10.478Z,15.37
2022-11-17T00:26:57.940Z,13.47
2022-11-17T00:29:25.549Z,123.23
2022-11-17T00:32:11.470Z,10.03
2022-11-17T00:34:38.656Z,161.67
2022-11-17T00:37:06.076Z,127.40
2022-11-17T00:39:33.483Z,68.03
2022-11-17T00:42:00.849Z,50.40
2022-11-17T00:44:28.170Z,92.27
2022-11-17T00:46:55.427Z,63.30
2022-11-17T00:49:25.423Z,62.80
2022-11-17T00:51:53.666Z,26.87
2022-11-17T00:54:20.929Z,30.13
2022-11-17T00:56:48.191Z,22.03
2022-11-17T00:59:15.492Z,5.03
2022-11-17T01:01:43.069Z,10.67
2022-11-17T01:04:10.562Z,8.33
2022-11-17T01:06:42.070Z,3.97
2022-11-17T01:09:14.171Z,5.47
2022-11-17T01:11:42.189Z,3.37
2022-11-17T01:14:14.930Z,5.70
2022-11-17T01:16:42.040Z,3.17
2022-11-17T01:19:10.185Z,3.63
2022-11-17T01:21:37.553Z,2.80
2022-11-17T01:24:05.063Z,3.20
2022-11-17T01:26:34.108Z,2.47
2022-11-17T01:29:02.126Z,2.93
2022-11-17T01:31:31.443Z,3.37
2022-11-17T01:33:58.856Z,2.77
2022-11-17T01:36:30.842Z,2.23
2022-11-17T01:38:58.004Z,5.53
2022-11-17T01:41:26.758Z,3.60
2022-11-17T01:43:56.298Z,2.97
2022-11-17T01:46:39.624Z,2.60
2022-11-17T01:49:18.503Z,3.10
2022-11-17T01:51:48.999Z,2.83
2022-11-17T01:54:17.897Z,6.37
2022-11-17T01:56:46.453Z,2.33
2022-11-17T01:59:22.012Z,4.07
2022-11-17T02:01:58.390Z,6.10
2022-11-17T02:04:35.147Z,5.33
2022-11-17T02:07:21.857Z,4.43
2022-11-17T02:09:49.138Z,3.20
2022-11-17T02:12:16.218Z,3.50
2022-11-17T02:14:43.370Z,2.93
2022-11-17T02:17:14.317Z,3.70
2022-11-17T02:19:42.560Z,2.73
2022-11-17T02:22:40.074Z,2.70
2022-11-17T02:25:28.188Z,2.57
2022-11-17T02:28:25.308Z,2.30
2022-11-17T02:31:30.140Z,2.47
2022-11-17T02:34:03.431Z,1.90
2022-11-17T02:36:41.146Z,2.57
2022-11-17T02:39:17.255Z,2.50
2022-11-17T02:41:50.566Z,2.23
2022-11-17T02:44:26.659Z,4.50
2022-11-17T02:47:02.422Z,2.23
2022-11-17T02:49:40.741Z,2.43
2022-11-17T02:52:08.418Z,2.40
2022-11-17T02:54:35.695Z,2.43
2022-11-17T02:57:02.899Z,2.23
2022-11-17T02:59:37.897Z,2.80
2022-11-17T03:02:23.223Z,2.20
2022-11-17T03:05:14.120Z,2.40
2022-11-17T03:08:08.827Z,2.30
2022-11-17T03:10:49.708Z,2.80
2022-11-17T03:13:38.802Z,2.40
2022-11-17T03:16:29.926Z,2.30
2022-11-17T03:19:18.135Z,2.87
2022-11-17T03:22:09.129Z,2.30
2022-11-17T03:24:51.482Z,2.70
2022-11-17T03:27:27.229Z,3.83
2022-11-17T03:30:05.993Z,2.30
2022-11-17T03:32:36.434Z,2.73
2022-11-17T03:35:15.379Z,3.23
2022-11-17T03:37:45.106Z,2.30
2022-11-17T03:40:14.905Z,2.27
2022-11-17T03:42:43.967Z,2.20
2022-11-17T03:45:20.531Z,2.40
2022-11-17T03:47:47.531Z,2.50
2022-11-17T03:50:19.691Z,2.87
2022-11-17T03:52:46.947Z,2.47
2022-11-17T03:55:14.031Z,3.90
2022-11-17T03:58:10.988Z,2.40
2022-11-17T04:00:38.104Z,2.40
2022-11-17T04:03:05.219Z,2.87
2022-11-17T04:05:32.419Z,2.80
2022-11-17T04:07:59.789Z,2.53
2022-11-17T04:10:27.419Z,3.87
2022-11-17T04:13:13.283Z,3.07
2022-11-17T04:15:59.559Z,2.80
2022-11-17T04:18:27.275Z,4.07
2022-11-17T04:20:56.119Z,3.63
2022-11-17T04:23:23.479Z,3.27
2022-11-17T04:26:13.237Z,4.90
2022-11-17T04:28:46.283Z,3.20
2022-11-17T04:31:15.819Z,2.37
2022-11-17T04:33:44.977Z,2.40
2022-11-17T04:36:13.343Z,3.03
2022-11-17T04:38:44.311Z,2.60
2022-11-17T04:41:31.423Z,4.00
2022-11-17T04:43:58.684Z,3.97
2022-11-17T04:46:26.083Z,2.97
2022-11-17T04:48:54.547Z,2.63
2022-11-17T04:51:22.413Z,2.57
2022-11-17T04:53:49.666Z,3.00
2022-11-17T04:56:16.776Z,3.07
2022-11-17T04:58:44.099Z,3.07
2022-11-17T05:01:14.452Z,4.30
2022-11-17T05:03:52.356Z,4.03
2022-11-17T05:06:20.641Z,3.80
2022-11-17T05:08:48.278Z,3.37
2022-11-17T05:11:34.185Z,3.40
2022-11-17T05:14:01.502Z,5.93
2022-11-17T05:16:47.449Z,3.33
2022-11-17T05:19:17.156Z,7.13
2022-11-17T05:21:44.473Z,3.03
2022-11-17T05:24:11.807Z,4.40
2022-11-17T05:26:39.282Z,4.87
2022-11-17T05:29:07.203Z,4.53
2022-11-17T05:31:34.572Z,7.90
2022-11-17T05:34:02.146Z,3.73
2022-11-17T05:36:29.529Z,3.07
2022-11-17T05:38:56.941Z,6.33
2022-11-17T05:41:24.275Z,5.70
2022-11-17T05:43:51.889Z,7.13
2022-11-17T05:46:19.379Z,13.33
2022-11-17T05:48:47.508Z,6.40
2022-11-17T05:51:14.896Z,5.03
2022-11-17T05:53:42.357Z,6.37
2022-11-17T05:56:24.562Z,4.43
2022-11-17T05:58:53.674Z,2.97
2022-11-17T06:01:21.257Z,2.50
2022-11-17T06:03:53.946Z,2.40
2022-11-17T06:06:21.433Z,2.63
2022-11-17T06:08:48.840Z,7.30
2022-11-17T06:11:17.174Z,5.90
2022-11-17T06:13:44.416Z,4.77
2022-11-17T06:16:12.515Z,3.23
2022-11-17T06:18:41.988Z,2.63
2022-11-17T06:21:09.511Z,3.50
2022-11-17T06:23:37.197Z,5.20
2022-11-17T06:26:06.684Z,12.93
2022-11-17T06:28:34.019Z,2.30
2022-11-17T06:31:01.219Z,3.57
2022-11-17T06:33:29.703Z,5.10
2022-11-17T06:35:57.231Z,4.77
2022-11-17T06:38:24.266Z,2.47
2022-11-17T06:40:52.087Z,3.17
2022-11-17T06:43:19.434Z,4.83
2022-11-17T06:45:47.273Z,4.97
2022-11-17T06:48:15.917Z,14.43
2022-11-17T06:50:43.590Z,9.30
2022-11-17T06:53:11.582Z,4.73
2022-11-17T06:55:39.130Z,2.30
2022-11-17T06:58:08.107Z,9.30
2022-11-17T07:00:36.775Z,8.80
2022-11-17T07:03:08.322Z,5.37
2022-11-17T07:05:36.245Z,4.17
2022-11-17T07:08:08.246Z,8.27
2022-11-17T07:10:36.262Z,5.13
2022-11-17T07:13:03.863Z,6.53
2022-11-17T07:15:31.316Z,5.57
2022-11-17T07:17:58.905Z,4.80
2022-11-17T07:20:26.155Z,3.97
2022-11-17T07:22:58.838Z,4.10
2022-11-17T07:25:26.369Z,4.23
2022-11-17T07:28:00.465Z,7.63
2022-11-17T07:30:27.729Z,3.70
2022-11-17T07:32:55.128Z,5.93
2022-11-17T07:35:22.436Z,12.63
2022-11-17T07:37:50.157Z,4.73
2022-11-17T07:40:17.488Z,6.40
2022-11-17T07:42:49.603Z,10.17
2022-11-17T07:45:16.837Z,24.63
2022-11-17T07:47:44.345Z,12.43
2022-11-17T07:50:11.584Z,32.13
2022-11-17T07:52:41.457Z,31.73
2022-11-17T07:55:09.063Z,19.07
2022-11-17T07:57:36.943Z,5.97
2022-11-17T08:00:04.789Z,8.53
2022-11-17T08:02:32.474Z,9.23
2022-11-17T08:04:59.842Z,10.00
2022-11-17T08:07:27.345Z,12.00
2022-11-17T08:09:54.446Z,6.10
2022-11-17T08:12:21.733Z,8.17
2022-11-17T08:14:48.983Z,4.07
2022-11-17T08:17:17.786Z,4.00
2022-11-17T08:19:45.062Z,5.13
2022-11-17T08:22:12.298Z,7.47
2022-11-17T08:24:39.701Z,8.50
2022-11-17T08:27:06.972Z,7.23
2022-11-17T08:29:33.982Z,7.87
2022-11-17T08:32:01.098Z,6.70
2022-11-17T08:34:28.143Z,7.73
2022-11-17T08:36:55.556Z,5.53
2022-11-17T08:39:22.606Z,7.87
2022-11-17T08:41:51.933Z,4.97
2022-11-17T08:44:18.953Z,4.27
2022-11-17T08:46:46.348Z,6.53
2022-11-17T08:49:13.804Z,6.93
2022-11-17T08:51:40.768Z,5.50
2022-11-17T08:54:10.163Z,5.53
2022-11-17T08:56:37.539Z,13.03
2022-11-17T08:59:04.641Z,8.90
2022-11-17T09:01:31.687Z,9.47
2022-11-17T09:03:59.080Z,12.23
2022-11-17T09:06:26.311Z,7.07
2022-11-17T09:08:54.685Z,8.37
2022-11-17T09:11:21.890Z,12.80
2022-11-17T09:13:49.262Z,13.30
2022-11-17T09:16:17.099Z,9.03
2022-11-17T09:18:44.605Z,8.10
2022-11-17T09:21:13.858Z,7.00
2022-11-17T09:23:41.744Z,8.67
2022-11-17T09:26:10.935Z,7.43
2022-11-17T09:28:38.524Z,9.57
2022-11-17T09:31:10.633Z,8.33
2022-11-17T09:33:37.907Z,5.33
2022-11-17T09:36:07.480Z,13.10
2022-11-17T09:38:35.878Z,14.50
2022-11-17T09:41:24.199Z,7.93
2022-11-17T09:43:54.332Z,9.30
2022-11-17T09:46:26.408Z,7.40
2022-11-17T09:49:22.929Z,10.90
2022-11-17T09:51:50.110Z,5.83
2022-11-17T09:54:32.150Z,7.40
2022-11-17T09:56:59.311Z,6.63
2022-11-17T09:59:27.643Z,4.80
2022-11-17T10:01:54.896Z,6.73
2022-11-17T10:04:22.756Z,7.83
2022-11-17T10:06:50.564Z,10.43
2022-11-17T10:09:37.172Z,16.30
2022-11-17T10:12:27.209Z,7.33
2022-11-17T10:14:54.893Z,7.33
2022-11-17T10:17:22.403Z,8.97
2022-11-17T10:19:49.653Z,8.53
2022-11-17T10:22:32.512Z,10.83
2022-11-17T10:24:59.937Z,11.40
2022-11-17T10:27:31.484Z,9.10
2022-11-17T10:30:07.445Z,16.43
2022-11-17T10:32:41.671Z,14.90
2022-11-17T10:35:22.139Z,12.23
2022-11-17T10:37:58.306Z,10.67
2022-11-17T10:40:46.701Z,12.10
2022-11-17T10:43:17.852Z,9.87
2022-11-17T10:45:53.020Z,13.20
2022-11-17T10:48:33.535Z,17.07
2022-11-17T10:51:19.747Z,11.30
2022-11-17T10:54:07.596Z,10.90
2022-11-17T10:56:40.499Z,12.07
2022-11-17T10:59:14.352Z,13.17
2022-11-17T11:01:43.237Z,11.73
2022-11-17T11:04:32.729Z,9.67
2022-11-17T11:07:22.466Z,13.20
2022-11-17T11:10:23.880Z,10.17
2022-11-17T11:12:56.686Z,12.97
2022-11-17T11:15:24.643Z,17.73
2022-11-17T11:17:51.756Z,12.43
2022-11-17T11:20:21.901Z,13.67
2022-11-17T11:23:02.756Z,12.00
2022-11-17T11:25:32.866Z,10.47
2022-11-17T11:28:21.435Z,15.80
2022-11-17T11:30:48.592Z,15.97
2022-11-17T11:33:28.287Z,15.33
2022-11-17T11:36:15.763Z,18.33
2022-11-17T11:38:52.842Z,16.13
2022-11-17T11:41:56.727Z,17.43
2022-11-17T11:44:42.535Z,19.70
2022-11-17T11:47:28.430Z,17.20
2022-11-17T11:49:58.138Z,21.37
2022-11-17T11:52:27.924Z,14.37
2022-11-17T11:54:56.896Z,15.73
2022-11-17T11:57:30.972Z,14.27
2022-11-17T12:00:04.998Z,16.97
2022-11-17T12:02:38.618Z,16.17
2022-11-17T12:05:11.142Z,15.17
2022-11-17T12:07:49.299Z,19.33
2022-11-17T12:10:40.855Z,18.80
2022-11-17T12:13:12.746Z,24.70
2022-11-17T12:15:39.966Z,27.10
2022-11-17T12:18:19.752Z,28.30
2022-11-17T12:20:52.991Z,35.47
2022-11-17T12:23:49.112Z,29.60
2022-11-17T12:26:29.679Z,27.83
2022-11-17T12:29:21.605Z,25.93
2022-11-17T12:31:49.687Z,27.60
2022-11-17T12:34:30.824Z,24.47
2022-11-17T12:37:16.248Z,24.63
2022-11-17T12:40:02.850Z,24.60
2022-11-17T12:42:33.367Z,23.20
2022-11-17T12:45:08.560Z,20.70
2022-11-17T12:47:40.633Z,19.63
2022-11-17T12:50:19.977Z,20.30
2022-11-17T12:53:14.566Z,22.27
2022-11-17T12:55:47.756Z,20.07
2022-11-17T12:58:33.602Z,20.33
2022-11-17T13:01:11.554Z,18.43
2022-11-17T13:03:47.901Z,18.93
2022-11-17T13:09:07.481Z,15.17
2022-11-17T13:11:35.365Z,19.83
2022-11-17T13:14:09.798Z,16.43
2022-11-17T13:16:38.068Z,14.63
2022-11-17T13:19:28.092Z,18.17
2022-11-17T13:22:00.560Z,14.40
2022-11-17T13:24:35.607Z,14.77
2022-11-17T13:27:04.701Z,14.73
2022-11-17T13:29:32.024Z,31.80
2022-11-17T13:32:25.518Z,27.43
2022-11-17T13:34:57.120Z,25.93
2022-11-17T13:37:25.995Z,27.73
2022-11-17T13:40:03.572Z,30.70
2022-11-17T13:42:32.198Z,33.97
2022-11-17T13:45:01.190Z,33.73
2022-11-17T13:47:38.211Z,27.70
2022-11-17T13:50:40.939Z,22.83
2022-11-17T13:53:22.582Z,23.43
2022-11-17T13:55:49.949Z,21.13
2022-11-17T13:58:27.365Z,23.80
2022-11-17T14:00:57.653Z,23.87
2022-11-17T14:03:33.898Z,20.23
2022-11-17T14:06:04.705Z,23.23
2022-11-17T14:08:32.281Z,21.37
2022-11-17T14:11:28.621Z,22.07
2022-11-17T14:13:59.267Z,20.67
2022-11-17T14:16:27.365Z,20.50
2022-11-17T14:19:02.062Z,21.33
2022-11-17T14:21:29.753Z,18.60
2022-11-17T14:24:05.787Z,19.87
2022-11-17T14:26:32.953Z,23.23
2022-11-17T14:29:03.128Z,21.80
2022-11-17T14:31:30.931Z,21.50
2022-11-17T14:33:58.208Z,20.03
2022-11-17T14:36:25.325Z,26.77
2022-11-17T14:38:52.839Z,28.83
2022-11-17T14:41:20.520Z,23.03
2022-11-17T14:43:48.065Z,22.63
2022-11-17T14:46:25.440Z,25.43
2022-11-17T14:48:52.695Z,19.53
2022-11-17T14:51:20.201Z,26.23
2022-11-17T14:53:48.100Z,30.57
2022-11-17T14:56:16.880Z,44.37
2022-11-17T14:58:44.802Z,29.03
2022-11-17T15:01:19.031Z,30.70
2022-11-17T15:03:46.758Z,37.70
2022-11-17T15:06:19.472Z,29.30
2022-11-17T15:08:47.504Z,25.60
2022-11-17T15:11:24.054Z,30.97
2022-11-17T15:13:51.320Z,25.47
2022-11-17T15:16:18.872Z,27.33
2022-11-17T15:18:49.025Z,29.97
2022-11-17T15:21:16.446Z,34.80
2022-11-17T15:23:44.057Z,31.20
2022-11-17T15:26:13.852Z,29.60
2022-11-17T15:28:41.152Z,28.33
2022-11-17T15:31:19.237Z,28.13
2022-11-17T15:33:47.652Z,27.37
2022-11-17T15:36:16.999Z,28.43
2022-11-17T15:38:44.235Z,25.80
2022-11-17T15:41:12.293Z,22.53
2022-11-17T15:43:40.887Z,22.70
2022-11-17T15:46:25.950Z,27.17
2022-11-17T15:48:53.535Z,26.30
2022-11-17T15:51:21.798Z,25.00
2022-11-17T15:53:49.632Z,26.47
2022-11-17T15:56:17.725Z,29.50
2022-11-17T15:58:45.348Z,34.93
2022-11-17T16:01:14.405Z,29.73
2022-11-17T16:03:43.141Z,27.17
2022-11-17T16:06:10.787Z,84.40
2022-11-17T16:08:38.245Z,55.60
2022-11-17T16:11:05.783Z,38.60
2022-11-17T16:13:33.124Z,40.47
2022-11-17T16:16:00.463Z,96.53
2022-11-17T16:18:27.586Z,42.77
2022-11-17T16:20:56.183Z,93.67
2022-11-17T16:23:26.844Z,134.30
2022-11-17T16:25:54.111Z,34.83
2022-11-17T16:28:21.341Z,37.30
2022-11-17T16:30:48.447Z,46.73
2022-11-17T16:33:16.800Z,41.00
2022-11-17T16:35:46.114Z,37.00
2022-11-17T16:38:15.438Z,31.50
2022-11-17T16:40:42.829Z,26.37
2022-11-17T16:43:13.495Z,46.37
2022-11-17T16:45:44.919Z,50.67
2022-11-17T16:48:12.678Z,31.50
2022-11-17T16:50:40.205Z,31.23
2022-11-17T16:53:07.677Z,31.90
2022-11-17T16:55:37.812Z,29.03
2022-11-17T16:58:06.239Z,24.37
2022-11-17T17:00:34.970Z,28.53
2022-11-17T17:03:02.598Z,31.60
2022-11-17T17:05:29.740Z,38.03
2022-11-17T17:07:57.535Z,34.60
2022-11-17T17:10:24.883Z,27.63
2022-11-17T17:12:52.536Z,28.67
2022-11-17T17:15:19.903Z,23.70
2022-11-17T17:17:47.186Z,22.77
2022-11-17T17:20:14.517Z,19.00
2022-11-17T17:22:42.166Z,20.73
2022-11-17T17:25:09.763Z,22.77
2022-11-17T17:27:39.622Z,25.47
2022-11-17T17:30:07.294Z,22.80
2022-11-17T17:32:34.651Z,25.83
2022-11-17T17:35:01.864Z,23.00
2022-11-17T17:37:30.668Z,23.70
2022-11-17T17:39:57.915Z,19.77
2022-11-17T17:42:25.138Z,18.10
2022-11-17T17:44:52.734Z,18.30
2022-11-17T17:47:20.000Z,22.17
2022-11-17T17:49:47.401Z,20.10
2022-11-17T17:52:15.166Z,17.93
2022-11-17T17:54:42.563Z,19.17
2022-11-17T17:57:10.852Z,18.20
2022-11-17T17:59:38.239Z,19.03
2022-11-17T18:02:05.568Z,18.57
2022-11-17T18:04:32.979Z,19.00
2022-11-17T18:07:01.640Z,20.70
2022-11-17T18:09:29.062Z,18.07
2022-11-17T18:11:56.323Z,15.97
2022-11-17T18:14:26.420Z,21.13
2022-11-17T18:16:53.822Z,20.50
2022-11-17T18:19:20.912Z,18.60
2022-11-17T18:21:48.444Z,19.37
2022-11-17T18:24:15.670Z,25.10
2022-11-17T18:26:43.333Z,16.70
2022-11-17T18:29:18.886Z,19.17
2022-11-17T18:31:47.656Z,19.27
2022-11-17T18:34:21.119Z,17.60
2022-11-17T18:36:52.014Z,19.87
2022-11-17T18:39:19.803Z,17.93
2022-11-17T18:41:47.291Z,18.27
2022-11-17T18:44:19.917Z,18.53
2022-11-17T18:46:47.244Z,20.70
2022-11-17T18:49:14.930Z,17.93
2022-11-17T18:51:42.616Z,19.97
2022-11-17T18:54:10.889Z,18.13
2022-11-17T18:56:38.802Z,19.93
2022-11-17T18:59:11.948Z,18.77
2022-11-17T19:01:40.781Z,19.03
2022-11-17T19:04:07.993Z,19.83
2022-11-17T19:06:35.998Z,23.73
2022-11-17T19:09:03.400Z,30.17
2022-11-17T19:11:32.933Z,36.27
2022-11-17T19:14:05.705Z,39.50
2022-11-17T19:16:33.339Z,26.40
2022-11-17T19:19:00.667Z,37.77
2022-11-17T19:21:29.585Z,41.67
2022-11-17T19:23:58.725Z,59.80
2022-11-17T19:26:30.427Z,75.60
2022-11-17T19:28:59.130Z,43.70
2022-11-17T19:31:26.466Z,73.47
2022-11-17T19:33:54.007Z,71.47
2022-11-17T19:36:40.151Z,67.07
2022-11-17T19:39:07.327Z,57.83
2022-11-17T19:41:36.380Z,28.07
2022-11-17T19:44:05.081Z,52.53
2022-11-17T19:46:32.466Z,55.23
2022-11-17T19:48:59.767Z,71.20
2022-11-17T19:51:31.305Z,69.67
2022-11-17T19:54:01.146Z,74.83
2022-11-17T19:56:28.402Z,77.53
2022-11-17T19:58:55.994Z,50.23
2022-11-17T20:01:27.908Z,38.73
2022-11-17T20:03:55.443Z,25.23
2022-11-17T20:06:24.559Z,46.67
2022-11-17T20:08:51.874Z,47.40
2022-11-17T20:11:23.298Z,53.50
2022-11-17T20:13:50.656Z,52.37
2022-11-17T20:16:19.884Z,21.87
2022-11-17T20:18:49.709Z,27.37
2022-11-17T20:21:16.964Z,36.80
2022-11-17T20:23:44.113Z,44.67
2022-11-17T20:26:16.078Z,33.17
2022-11-17T20:28:43.188Z,16.40
2022-11-17T20:31:14.819Z,30.53
2022-11-17T20:33:42.944Z,24.13
2022-11-17T20:36:12.491Z,31.50
2022-11-17T20:38:39.774Z,27.07
2022-11-17T20:41:07.129Z,25.67
2022-11-17T20:43:34.614Z,27.93
2022-11-17T20:46:02.068Z,23.80
2022-11-17T20:48:29.327Z,23.67
2022-11-17T20:51:00.296Z,32.57
2022-11-17T20:53:27.775Z,38.03
2022-11-17T20:56:02.753Z,21.20
2022-11-17T20:58:30.240Z,25.23
2022-11-17T21:00:57.757Z,21.60
2022-11-17T21:03:26.042Z,36.57
2022-11-17T21:05:59.082Z,34.53
2022-11-17T21:08:27.816Z,23.27
2022-11-17T21:10:59.313Z,20.77
2022-11-17T21:13:26.672Z,17.93
2022-11-17T21:16:13.673Z,16.93
2022-11-17T21:18:46.008Z,14.73
2022-11-17T21:21:13.431Z,14.73
2022-11-17T21:23:40.728Z,19.13
2022-11-17T21:26:12.931Z,25.57
2022-11-17T21:28:41.145Z,33.47
2022-11-17T21:31:13.132Z,20.53
2022-11-17T21:33:40.562Z,17.07
2022-11-17T21:36:09.584Z,14.07
2022-11-17T21:38:37.049Z,9.83
2022-11-17T21:41:11.732Z,12.73
2022-11-17T21:43:40.047Z,10.67
2022-11-17T21:46:09.314Z,10.50
2022-11-17T21:48:37.433Z,10.30
2022-11-17T21:51:05.272Z,11.43
2022-11-17T21:53:32.895Z,10.60
2022-11-17T21:56:04.040Z,10.17
2022-11-17T21:58:31.375Z,14.80
2022-11-17T22:00:59.011Z,29.03
2022-11-17T22:03:26.583Z,29.70
2022-11-17T22:05:57.984Z,24.43
2022-11-17T22:08:28.358Z,30.27
2022-11-17T22:10:55.704Z,22.63
2022-11-17T22:13:22.732Z,24.93
2022-11-17T22:15:50.084Z,19.40
2022-11-17T22:18:17.304Z,18.27
2022-11-17T22:20:44.446Z,22.07
2022-11-17T22:23:11.559Z,24.57
2022-11-17T22:25:45.072Z,54.93
2022-11-17T22:28:12.826Z,80.90
2022-11-17T22:30:39.776Z,55.00
2022-11-17T22:33:06.724Z,77.90
2022-11-17T22:35:34.227Z,42.33
2022-11-17T22:38:01.179Z,36.33
2022-11-17T22:40:28.147Z,28.20
2022-11-17T22:42:55.596Z,63.27
2022-11-17T22:45:22.875Z,17.37
2022-11-17T22:47:50.184Z,17.93
2022-11-17T22:50:17.419Z,29.83
2022-11-17T22:52:44.604Z,29.70
2022-11-17T22:55:11.788Z,16.40
2022-11-17T22:57:39.020Z,6.57
2022-11-17T23:00:06.939Z,9.23
2022-11-17T23:02:34.124Z,9.17
2022-11-17T23:05:01.383Z,8.60
2022-11-17T23:07:29.286Z,9.97
2022-11-17T23:09:56.727Z,8.27
2022-11-17T23:12:24.047Z,15.43
2022-11-17T23:14:51.374Z,16.57
2022-11-17T23:17:19.752Z,33.87
2022-11-17T23:19:46.892Z,96.97
2022-11-17T23:22:14.181Z,78.17
2022-11-17T23:24:41.680Z,103.23
2022-11-17T23:27:08.886Z,174.80
2022-11-17T23:29:36.288Z,119.40
2022-11-17T23:32:03.570Z,72.40
2022-11-17T23:34:31.044Z,84.33
2022-11-17T23:37:03.380Z,60.23
2022-11-17T23:39:31.081Z,71.33
2022-11-17T23:41:58.356Z,20.17
2022-11-17T23:44:25.685Z,22.43
2022-11-17T23:46:52.876Z,22.60
2022-11-17T23:49:20.193Z,12.23
2022-11-17T23:51:47.468Z,10.80
2022-11-17T23:54:14.844Z,10.30
2022-11-17T23:56:41.946Z,10.67
2022-11-17T23:59:09.147Z,6.97
